createdAt,value
2017-09-10T00:02:11.654Z,95898.04
2017-09-10T00:04:39.280Z,95895.00
2017-09-10T00:07:06.900Z,95897.55
2017-09-10T00:09:34.524Z,95901.37
2017-09-10T00:12:02.109Z,95907.31
2017-09-10T00:14:29.720Z,95904.77
2017-09-10T00:16:57.294Z,95907.35
2017-09-10T00:19:25.220Z,95904.41
2017-09-10T00:21:52.775Z,95908.23
2017-09-10T00:24:20.335Z,95903.98
2017-09-10T00:26:47.975Z,95902.28
2017-09-10T00:29:15.552Z,95895.49
2017-09-10T00:31:43.166Z,95897.19
2017-09-10T00:34:10.724Z,95891.70
2017-09-10T00:36:38.359Z,95892.59
2017-09-10T00:39:05.936Z,95893.83
2017-09-10T00:41:33.553Z,95902.71
2017-09-10T00:44:02.398Z,95903.14
2017-09-10T00:46:30.049Z,95896.34
2017-09-10T00:48:57.643Z,95895.92
2017-09-10T00:51:25.515Z,95897.61
2017-09-10T00:53:53.886Z,95900.66
2017-09-10T00:56:21.479Z,95891.38
2017-09-10T00:58:49.285Z,95892.94
2017-09-10T01:01:16.858Z,95892.48
2017-09-10T01:03:44.497Z,95892.06
2017-09-10T01:06:12.105Z,95890.88
2017-09-10T01:08:39.689Z,95882.39
2017-09-10T01:11:07.268Z,95876.87
2017-09-10T01:13:35.587Z,95874.33
2017-09-10T01:16:03.149Z,95881.55
2017-09-10T01:18:31.016Z,95877.79
2017-09-10T01:20:58.589Z,95884.97
2017-09-10T01:23:26.161Z,95879.00
2017-09-10T01:25:53.972Z,95883.70
2017-09-10T01:28:21.519Z,95879.95
2017-09-10T01:30:49.104Z,95876.13
2017-09-10T01:33:16.700Z,95882.89
2017-09-10T01:35:44.314Z,95884.58
2017-09-10T01:38:11.931Z,95878.25
2017-09-10T01:40:39.522Z,95879.52
2017-09-10T01:43:07.096Z,95876.58
2017-09-10T01:45:35.004Z,95884.65
2017-09-10T01:48:02.572Z,95888.47
2017-09-10T01:50:30.111Z,95886.45
2017-09-10T01:52:57.740Z,95889.81
2017-09-10T01:55:25.855Z,95894.97
2017-09-10T01:57:53.424Z,95898.83
2017-09-10T02:00:20.994Z,95897.12
2017-09-10T02:02:48.603Z,95899.22
2017-09-10T02:05:16.230Z,95901.80
2017-09-10T02:07:43.831Z,95905.68
2017-09-10T02:10:11.417Z,95912.53
2017-09-10T02:12:38.988Z,95915.51
2017-09-10T02:15:06.620Z,95917.69
2017-09-10T02:17:34.209Z,95918.15
2017-09-10T02:20:01.835Z,95914.36
2017-09-10T02:22:29.445Z,95916.08
2017-09-10T02:24:57.040Z,95919.05
2017-09-10T02:27:24.620Z,95929.30
2017-09-10T02:29:52.269Z,95922.51
2017-09-10T02:32:19.860Z,95917.48
2017-09-10T02:34:47.847Z,95917.91
2017-09-10T02:37:15.435Z,95915.30
2017-09-10T02:39:43.023Z,95913.17
2017-09-10T02:42:10.607Z,95913.14
2017-09-10T02:44:38.172Z,95917.81
2017-09-10T02:47:05.776Z,95915.30
2017-09-10T02:49:33.360Z,95914.05
2017-09-10T02:52:01.695Z,95921.27
2017-09-10T02:54:29.305Z,95917.02
2017-09-10T02:56:56.919Z,95912.44
2017-09-10T02:59:24.537Z,95916.27
2017-09-10T03:01:52.997Z,95922.12
2017-09-10T03:04:20.635Z,95915.33
2017-09-10T03:06:48.248Z,95919.15
2017-09-10T03:09:15.836Z,95915.30
2017-09-10T03:11:43.450Z,95922.97
2017-09-10T03:14:11.152Z,95925.52
2017-09-10T03:16:38.736Z,95920.84
2017-09-10T03:19:06.713Z,95924.70
2017-09-10T03:21:34.285Z,95928.06
2017-09-10T03:24:02.357Z,95930.18
2017-09-10T03:26:29.953Z,95925.52
2017-09-10T03:28:57.529Z,95925.48
2017-09-10T03:31:25.114Z,95927.33
2017-09-10T03:33:54.059Z,95924.33
2017-09-10T03:36:21.813Z,95928.59
2017-09-10T03:38:49.392Z,95937.52
2017-09-10T03:41:16.919Z,95938.76
2017-09-10T03:43:44.514Z,95948.60
2017-09-10T03:46:12.140Z,95957.52
2017-09-10T03:48:39.735Z,95965.97
2017-09-10T03:51:08.221Z,95967.70
2017-09-10T03:53:35.804Z,95963.09
2017-09-10T03:56:03.406Z,95959.29
2017-09-10T03:58:31.014Z,95969.08
2017-09-10T04:00:58.599Z,95972.08
2017-09-10T04:03:27.095Z,95972.07
2017-09-10T04:05:55.054Z,95975.97
2017-09-10T04:08:22.709Z,95978.06
2017-09-10T04:10:50.326Z,95978.04
2017-09-10T04:13:17.958Z,95981.47
2017-09-10T04:15:46.202Z,95984.09
2017-09-10T04:18:13.804Z,95984.03
2017-09-10T04:20:41.451Z,95984.86
2017-09-10T04:23:09.077Z,95984.95
2017-09-10T04:25:36.681Z,95992.63
2017-09-10T04:28:04.635Z,95998.11
2017-09-10T04:30:32.236Z,96001.50
2017-09-10T04:32:59.804Z,96010.01
2017-09-10T04:35:27.422Z,96019.77
2017-09-10T04:37:55.022Z,96028.67
2017-09-10T04:40:22.648Z,96021.87
2017-09-10T04:42:50.210Z,96020.19
2017-09-10T04:45:17.816Z,96017.63
2017-09-10T04:47:45.389Z,96013.35
2017-09-10T04:50:12.991Z,96026.50
2017-09-10T04:52:40.659Z,96027.76
2017-09-10T04:55:08.260Z,96025.61
2017-09-10T04:57:35.865Z,96027.28
2017-09-10T05:00:03.852Z,96030.65
2017-09-10T05:02:31.509Z,96037.47
2017-09-10T05:04:59.085Z,96043.80
2017-09-10T05:07:26.693Z,96044.22
2017-09-10T05:09:54.326Z,96047.19
2017-09-10T05:12:22.002Z,96050.98
2017-09-10T05:14:49.622Z,96045.92
2017-09-10T05:17:17.250Z,96046.35
2017-09-10T05:19:44.821Z,96045.05
2017-09-10T05:22:12.415Z,96050.59
2017-09-10T05:24:40.004Z,96056.55
2017-09-10T05:27:08.045Z,96051.06
2017-09-10T05:29:35.644Z,96048.05
2017-09-10T05:32:03.215Z,96050.52
2017-09-10T05:34:30.835Z,96052.65
2017-09-10T05:36:58.664Z,96058.11
2017-09-10T05:39:26.255Z,96059.33
2017-09-10T05:41:53.833Z,96053.02
2017-09-10T05:44:21.446Z,96062.76
2017-09-10T05:46:49.442Z,96061.08
2017-09-10T05:49:17.021Z,96062.75
2017-09-10T05:51:44.609Z,96066.98
2017-09-10T05:54:12.238Z,96067.40
2017-09-10T05:56:39.799Z,96082.66
2017-09-10T05:59:07.448Z,96079.20
2017-09-10T06:01:35.006Z,96078.80
2017-09-10T06:04:02.950Z,96077.61
2017-09-10T06:06:30.545Z,96088.59
2017-09-10T06:08:58.412Z,96093.63
2017-09-10T06:11:25.989Z,96105.59
2017-09-10T06:13:53.595Z,96107.77
2017-09-10T06:16:21.509Z,96118.32
2017-09-10T06:18:49.458Z,96109.46
2017-09-10T06:21:17.040Z,96119.17
2017-09-10T06:23:44.647Z,96120.42
2017-09-10T06:26:12.213Z,96117.80
2017-09-10T06:28:40.231Z,96122.00
2017-09-10T06:31:07.838Z,96110.12
2017-09-10T06:33:35.469Z,96104.52
2017-09-10T06:36:03.096Z,96109.17
2017-09-10T06:38:30.697Z,96108.34
2017-09-10T06:40:58.336Z,96107.05
2017-09-10T06:43:25.925Z,96104.00
2017-09-10T06:45:53.670Z,96109.86
2017-09-10T06:48:21.319Z,96105.56
2017-09-10T06:50:48.953Z,96105.48
2017-09-10T06:53:16.511Z,96107.55
2017-09-10T06:55:44.651Z,96095.38
2017-09-10T06:58:13.166Z,96098.22
2017-09-10T07:00:41.387Z,96098.95
2017-09-10T07:03:09.239Z,96117.61
2017-09-10T07:05:37.609Z,96124.86
2017-09-10T07:08:05.233Z,96140.50
2017-09-10T07:10:32.901Z,96152.05
2017-09-10T07:13:01.965Z,96167.78
2017-09-10T07:15:29.657Z,96171.20
2017-09-10T07:17:57.228Z,96181.91
2017-09-10T07:20:24.798Z,96175.55
2017-09-10T07:22:52.418Z,96175.53
2017-09-10T07:25:20.008Z,96179.32
2017-09-10T07:27:47.611Z,96195.02
2017-09-10T07:30:15.360Z,96189.91
2017-09-10T07:32:42.958Z,96198.81
2017-09-10T07:35:11.088Z,96194.52
2017-09-10T07:37:41.616Z,96192.31
2017-09-10T07:40:09.924Z,96196.94
2017-09-10T07:42:37.783Z,96198.14
2017-09-10T07:45:05.538Z,96195.56
2017-09-10T07:47:33.180Z,96186.22
2017-09-10T07:50:01.950Z,96190.41
2017-09-10T07:52:29.589Z,96194.23
2017-09-10T07:54:57.201Z,96196.31
2017-09-10T07:57:25.948Z,96194.10
2017-09-10T07:59:55.069Z,96195.72
2017-09-10T08:02:24.336Z,96196.97
2017-09-10T08:04:53.301Z,96199.04
2017-09-10T08:07:21.343Z,96195.67
2017-09-10T08:09:49.016Z,96193.94
2017-09-10T08:12:19.019Z,96199.02
2017-09-10T08:14:49.738Z,96207.88
2017-09-10T08:17:20.239Z,96204.11
2017-09-10T08:19:50.096Z,96210.91
2017-09-10T08:22:19.210Z,96209.64
2017-09-10T08:24:46.830Z,96212.29
2017-09-10T08:27:16.101Z,96210.63
2017-09-10T08:29:46.251Z,96215.75
2017-09-10T08:32:15.481Z,96208.08
2017-09-10T08:34:44.725Z,96202.86
2017-09-10T08:37:12.883Z,96199.41
2017-09-10T08:39:42.059Z,96205.25
2017-09-10T08:42:13.100Z,96213.78
2017-09-10T08:44:40.974Z,96217.55
2017-09-10T08:47:11.357Z,96229.70
2017-09-10T08:49:40.817Z,96237.34
2017-09-10T08:52:10.528Z,96230.50
2017-09-10T08:54:38.123Z,96224.95
2017-09-10T08:57:12.051Z,96228.34
2017-09-10T08:59:41.633Z,96229.73
2017-09-10T09:02:09.270Z,96228.48
2017-09-10T09:04:36.897Z,96232.73
2017-09-10T09:07:07.061Z,96242.61
2017-09-10T09:09:36.375Z,96248.10
2017-09-10T09:12:05.482Z,96242.52
2017-09-10T09:14:34.542Z,96247.08
2017-09-10T09:17:02.478Z,96246.13
2017-09-10T09:19:30.178Z,96238.47
2017-09-10T09:21:59.320Z,96240.14
2017-09-10T09:24:26.980Z,96241.33
2017-09-10T09:26:54.618Z,96238.60
2017-09-10T09:29:29.335Z,96233.13
2017-09-10T09:31:57.585Z,96238.05
2017-09-10T09:34:26.645Z,96234.44
2017-09-10T09:36:55.549Z,96238.56
2017-09-10T09:39:23.182Z,96231.00
2017-09-10T09:41:52.547Z,96236.08
2017-09-10T09:44:20.975Z,96241.91
2017-09-10T09:46:48.642Z,96236.67
2017-09-10T09:49:16.364Z,96243.77
2017-09-10T09:51:45.509Z,96245.70
2017-09-10T09:54:13.472Z,96250.31
2017-09-10T09:56:42.486Z,96249.11
2017-09-10T09:59:10.329Z,96250.35
2017-09-10T10:01:38.531Z,96247.44
2017-09-10T10:04:06.081Z,96243.58
2017-09-10T10:06:35.038Z,96247.23
2017-09-10T10:09:02.982Z,96247.66
2017-09-10T10:11:31.701Z,96247.06
2017-09-10T10:14:00.742Z,96242.94
2017-09-10T10:16:28.723Z,96235.66
2017-09-10T10:18:57.416Z,96231.45
2017-09-10T10:21:26.155Z,96233.93
2017-09-10T10:23:57.093Z,96240.96
2017-09-10T10:26:26.027Z,96231.02
2017-09-10T10:28:55.866Z,96229.23
2017-09-10T10:31:24.398Z,96236.09
2017-09-10T10:33:52.366Z,96239.03
2017-09-10T10:36:19.907Z,96235.45
2017-09-10T10:38:49.657Z,96234.44
2017-09-10T10:41:17.266Z,96232.89
2017-09-10T10:43:48.217Z,96234.09
2017-09-10T10:46:16.386Z,96236.64
2017-09-10T10:48:45.952Z,96232.66
2017-09-10T10:51:14.875Z,96222.78
2017-09-10T10:53:42.585Z,96214.95
2017-09-10T10:56:11.900Z,96219.95
2017-09-10T10:58:39.477Z,96214.41
2017-09-10T11:01:07.068Z,96209.56
2017-09-10T11:03:34.689Z,96211.99
2017-09-10T11:06:02.259Z,96209.53
2017-09-10T11:08:29.842Z,96199.52
2017-09-10T11:10:57.430Z,96186.20
2017-09-10T11:13:25.070Z,96188.08
2017-09-10T11:15:52.678Z,96186.80
2017-09-10T11:18:20.604Z,96186.28
2017-09-10T11:20:48.162Z,96192.03
2017-09-10T11:23:15.726Z,96185.81
2017-09-10T11:25:43.351Z,96189.09
2017-09-10T11:28:11.444Z,96176.97
2017-09-10T11:30:40.587Z,96172.88
2017-09-10T11:33:08.325Z,96174.83
2017-09-10T11:35:35.935Z,96175.53
2017-09-10T11:38:03.468Z,96175.06
2017-09-10T11:40:31.419Z,96177.11
2017-09-10T11:42:59.034Z,96177.05
2017-09-10T11:45:28.389Z,96180.90
2017-09-10T11:47:55.999Z,96184.13
2017-09-10T11:50:23.604Z,96180.19
2017-09-10T11:52:51.199Z,96181.33
2017-09-10T11:55:19.770Z,96184.17
2017-09-10T11:57:49.325Z,96180.38
2017-09-10T12:00:17.061Z,96187.50
2017-09-10T12:02:45.317Z,96193.52
2017-09-10T12:05:12.939Z,96202.38
2017-09-10T12:07:40.534Z,96204.05
2017-09-10T12:10:08.136Z,96204.14
2017-09-10T12:12:35.746Z,96188.72
2017-09-10T12:15:03.395Z,96189.95
2017-09-10T12:17:31.123Z,96195.41
2017-09-10T12:19:58.871Z,96197.03
2017-09-10T12:22:26.920Z,96192.09
2017-09-10T12:24:55.729Z,96195.64
2017-09-10T12:27:23.344Z,96207.09
2017-09-10T12:29:50.934Z,96215.28
2017-09-10T12:32:18.550Z,96210.08
2017-09-10T12:34:46.137Z,96218.09
2017-09-10T12:37:13.757Z,96220.59
2017-09-10T12:39:41.338Z,96221.98
2017-09-10T12:42:08.950Z,96221.31
2017-09-10T12:44:36.505Z,96218.52
2017-09-10T12:47:04.452Z,96227.81
2017-09-10T12:49:32.044Z,96234.13
2017-09-10T12:51:59.626Z,96226.72
2017-09-10T12:54:27.238Z,96228.19
2017-09-10T12:56:54.924Z,96228.66
2017-09-10T12:59:22.587Z,96230.61
2017-09-10T13:01:50.145Z,96236.02
2017-09-10T13:04:19.400Z,96239.25
2017-09-10T13:06:47.024Z,96237.73
2017-09-10T13:09:14.651Z,96240.77
2017-09-10T13:11:42.267Z,96236.25
2017-09-10T13:14:09.895Z,96238.88
2017-09-10T13:16:37.574Z,96240.16
2017-09-10T13:19:05.332Z,96243.61
2017-09-10T13:21:32.990Z,96237.08
2017-09-10T13:24:00.664Z,96226.59
2017-09-10T13:26:30.023Z,96232.17
2017-09-10T13:28:57.859Z,96235.78
2017-09-10T13:31:26.017Z,96219.88
2017-09-10T13:33:53.670Z,96222.30
2017-09-10T13:36:26.463Z,96222.69
2017-09-10T13:38:54.202Z,96218.32
2017-09-10T13:41:21.883Z,96203.07
2017-09-10T13:43:49.536Z,96202.53
2017-09-10T13:46:17.159Z,96200.30
2017-09-10T13:48:44.912Z,96193.30
2017-09-10T13:51:12.541Z,96194.81
2017-09-10T13:53:40.277Z,96184.75
2017-09-10T13:56:07.935Z,96180.11
2017-09-10T13:58:35.572Z,96171.93
2017-09-10T14:01:03.528Z,96174.24
2017-09-10T14:03:31.094Z,96167.08
2017-09-10T14:05:58.834Z,96163.66
2017-09-10T14:08:26.532Z,96160.98
2017-09-10T14:10:54.282Z,96162.48
2017-09-10T14:13:22.121Z,96158.26
2017-09-10T14:15:49.759Z,96153.03
2017-09-10T14:18:17.430Z,96151.95
2017-09-10T14:20:45.077Z,96154.23
2017-09-10T14:23:12.711Z,96154.50
2017-09-10T14:25:40.296Z,96157.22
2017-09-10T14:28:07.972Z,96159.72
2017-09-10T14:30:35.712Z,96161.27
2017-09-10T14:33:03.330Z,96168.95
2017-09-10T14:35:31.049Z,96171.02
2017-09-10T14:37:58.685Z,96169.48
2017-09-10T14:40:26.777Z,96173.77
2017-09-10T14:42:54.406Z,96173.09
2017-09-10T14:45:22.184Z,96169.34
2017-09-10T14:47:49.951Z,96172.05
2017-09-10T14:50:17.726Z,96169.02
2017-09-10T14:52:45.360Z,96171.88
2017-09-10T14:55:12.947Z,96174.45
2017-09-10T14:57:40.631Z,96175.59
2017-09-10T15:00:08.258Z,96180.61
2017-09-10T15:02:36.139Z,96176.75
2017-09-10T15:05:03.771Z,96172.19
2017-09-10T15:07:31.408Z,96175.73
2017-09-10T15:09:58.995Z,96170.84
2017-09-10T15:12:26.597Z,96168.73
2017-09-10T15:14:54.219Z,96170.42
2017-09-10T15:17:21.823Z,96176.77
2017-09-10T15:19:49.497Z,96172.11
2017-09-10T15:22:17.120Z,96175.34
2017-09-10T15:24:45.025Z,96169.09
2017-09-10T15:27:12.651Z,96167.86
2017-09-10T15:29:40.233Z,96178.05
2017-09-10T15:32:07.846Z,96179.04
2017-09-10T15:34:35.503Z,96175.69
2017-09-10T15:37:03.151Z,96178.31
2017-09-10T15:39:31.805Z,96189.77
2017-09-10T15:41:59.484Z,96190.78
2017-09-10T15:44:27.112Z,96187.86
2017-09-10T15:46:54.736Z,96185.09
2017-09-10T15:49:22.335Z,96180.75
2017-09-10T15:51:50.305Z,96178.76
2017-09-10T15:54:17.900Z,96174.13
2017-09-10T15:56:45.571Z,96171.27
2017-09-10T15:59:13.201Z,96167.95
2017-09-10T16:01:41.197Z,96163.48
2017-09-10T16:04:08.879Z,96168.66
2017-09-10T16:06:36.561Z,96174.44
2017-09-10T16:09:04.136Z,96173.94
2017-09-10T16:11:31.780Z,96177.95
2017-09-10T16:13:59.351Z,96177.10
2017-09-10T16:16:27.574Z,96179.41
2017-09-10T16:18:55.188Z,96182.46
2017-09-10T16:21:23.471Z,96178.46
2017-09-10T16:23:52.388Z,96188.77
2017-09-10T16:26:19.987Z,96189.77
2017-09-10T16:28:47.557Z,96189.75
2017-09-10T16:31:15.141Z,96190.53
2017-09-10T16:33:42.881Z,96186.83
2017-09-10T16:36:10.494Z,96194.18
2017-09-10T16:38:38.098Z,96194.76
2017-09-10T16:41:06.456Z,96191.81
2017-09-10T16:43:34.478Z,96190.23
2017-09-10T16:46:02.067Z,96189.16
2017-09-10T16:48:29.624Z,96196.55
2017-09-10T16:50:57.221Z,96194.22
2017-09-10T16:53:24.874Z,96199.67
2017-09-10T16:55:52.452Z,96202.41
2017-09-10T16:58:20.458Z,96194.39
2017-09-10T17:00:48.057Z,96184.66
2017-09-10T17:03:15.621Z,96188.16
2017-09-10T17:05:43.195Z,96183.13
2017-09-10T17:08:10.752Z,96178.92
2017-09-10T17:10:38.495Z,96179.04
2017-09-10T17:13:06.111Z,96173.11
2017-09-10T17:15:33.717Z,96174.44
2017-09-10T17:18:01.288Z,96173.20
2017-09-10T17:20:28.887Z,96166.00
2017-09-10T17:22:56.498Z,96174.53
2017-09-10T17:25:24.397Z,96176.74
2017-09-10T17:27:53.263Z,96175.89
2017-09-10T17:30:20.819Z,96177.68
2017-09-10T17:32:48.489Z,96184.13
2017-09-10T17:35:16.067Z,96185.52
2017-09-10T17:37:43.665Z,96190.80
2017-09-10T17:40:11.205Z,96184.50
2017-09-10T17:42:38.805Z,96182.41
2017-09-10T17:45:06.397Z,96182.44
2017-09-10T17:47:33.968Z,96182.52
2017-09-10T17:50:01.546Z,96185.16
2017-09-10T17:52:29.236Z,96184.81
2017-09-10T17:54:56.834Z,96183.23
2017-09-10T17:57:24.935Z,96187.11
2017-09-10T17:59:52.536Z,96190.55
2017-09-10T18:02:20.123Z,96186.75
2017-09-10T18:04:47.754Z,96185.98
2017-09-10T18:07:15.447Z,96185.20
2017-09-10T18:09:43.106Z,96187.38
2017-09-10T18:12:11.803Z,96187.41
2017-09-10T18:14:39.933Z,96196.44
2017-09-10T18:17:07.536Z,96190.52
2017-09-10T18:19:35.284Z,96187.92
2017-09-10T18:22:02.991Z,96186.26
2017-09-10T18:24:30.575Z,96187.14
2017-09-10T18:26:58.274Z,96181.26
2017-09-10T18:29:25.888Z,96189.45
2017-09-10T18:31:53.813Z,96179.35
2017-09-10T18:34:21.379Z,96176.45
2017-09-10T18:36:48.940Z,96183.79
2017-09-10T18:39:16.725Z,96189.01
2017-09-10T18:41:44.328Z,96178.22
2017-09-10T18:44:11.977Z,96180.20
2017-09-10T18:46:39.569Z,96179.91
2017-09-10T18:49:07.545Z,96185.93
2017-09-10T18:51:35.591Z,96174.55
2017-09-10T18:54:03.198Z,96172.88
2017-09-10T18:56:30.836Z,96182.27
2017-09-10T18:58:58.405Z,96184.75
2017-09-10T19:01:26.038Z,96192.02
2017-09-10T19:03:53.600Z,96190.37
2017-09-10T19:06:22.096Z,96196.80
2017-09-10T19:08:51.805Z,96199.08
2017-09-10T19:11:21.363Z,96194.52
2017-09-10T19:13:51.341Z,96197.56
2017-09-10T19:16:19.018Z,96197.22
2017-09-10T19:18:46.660Z,96199.44
2017-09-10T19:21:14.660Z,96203.35
2017-09-10T19:23:42.257Z,96205.42
2017-09-10T19:26:09.881Z,96207.12
2017-09-10T19:28:38.143Z,96210.95
2017-09-10T19:31:05.779Z,96213.92
2017-09-10T19:33:33.369Z,96210.97
2017-09-10T19:36:00.996Z,96215.73
2017-09-10T19:38:28.595Z,96213.66
2017-09-10T19:40:56.205Z,96216.70
2017-09-10T19:43:23.798Z,96212.95
2017-09-10T19:45:56.287Z,96212.55
2017-09-10T19:48:24.104Z,96210.91
2017-09-10T19:50:51.989Z,96207.54
2017-09-10T19:53:19.657Z,96210.12
2017-09-10T19:55:47.263Z,96204.62
2017-09-10T19:58:14.881Z,96204.25
2017-09-10T20:00:42.474Z,96203.84
2017-09-10T20:03:10.111Z,96197.95
2017-09-10T20:05:37.701Z,96197.64
2017-09-10T20:08:05.431Z,96189.19
2017-09-10T20:10:33.526Z,96200.73
2017-09-10T20:13:01.174Z,96196.09
2017-09-10T20:15:28.787Z,96199.08
2017-09-10T20:17:56.449Z,96197.81
2017-09-10T20:20:24.009Z,96207.19
2017-09-10T20:22:51.850Z,96196.98
2017-09-10T20:25:19.418Z,96207.60
2017-09-10T20:27:47.050Z,96206.33
2017-09-10T20:30:14.808Z,96207.69
2017-09-10T20:32:42.359Z,96202.66
2017-09-10T20:35:09.984Z,96206.11
2017-09-10T20:37:38.888Z,96218.09
2017-09-10T20:40:06.795Z,96215.98
2017-09-10T20:42:34.414Z,96222.80
2017-09-10T20:45:02.522Z,96227.09
2017-09-10T20:47:30.136Z,96224.66
2017-09-10T20:49:57.815Z,96214.95
2017-09-10T20:52:25.405Z,96213.28
2017-09-10T20:54:52.969Z,96212.87
2017-09-10T20:57:20.911Z,96206.58
2017-09-10T20:59:48.635Z,96206.17
2017-09-10T21:02:16.273Z,96203.22
2017-09-10T21:04:43.944Z,96195.23
2017-09-10T21:07:11.531Z,96199.38
2017-09-10T21:09:39.181Z,96191.73
2017-09-10T21:12:06.767Z,96187.06
2017-09-10T21:14:34.382Z,96187.08
2017-09-10T21:17:01.976Z,96183.68
2017-09-10T21:19:29.949Z,96173.45
2017-09-10T21:21:57.532Z,96167.50
2017-09-10T21:24:25.889Z,96161.14
2017-09-10T21:26:53.521Z,96158.15
2017-09-10T21:29:21.118Z,96157.69
2017-09-10T21:31:48.686Z,96146.27
2017-09-10T21:34:16.276Z,96148.38
2017-09-10T21:36:43.872Z,96144.17
2017-09-10T21:39:11.626Z,96147.16
2017-09-10T21:41:39.425Z,96157.39
2017-09-10T21:44:07.310Z,96153.56
2017-09-10T21:46:34.882Z,96156.97
2017-09-10T21:49:02.458Z,96160.78
2017-09-10T21:51:30.330Z,96162.92
2017-09-10T21:53:57.970Z,96166.77
2017-09-10T21:56:25.921Z,96160.84
2017-09-10T21:58:53.512Z,96152.77
2017-09-10T22:01:21.091Z,96144.29
2017-09-10T22:03:48.671Z,96148.11
2017-09-10T22:06:16.256Z,96150.23
2017-09-10T22:08:43.860Z,96151.48
2017-09-10T22:11:11.436Z,96156.16
2017-09-10T22:13:39.368Z,96163.00
2017-09-10T22:16:06.951Z,96163.05
2017-09-10T22:18:34.518Z,96162.66
2017-09-10T22:21:02.236Z,96165.68
2017-09-10T22:23:29.810Z,96161.00
2017-09-10T22:25:57.599Z,96160.20
2017-09-10T22:28:25.203Z,96161.89
2017-09-10T22:30:53.098Z,96154.68
2017-09-10T22:33:20.685Z,96156.83
2017-09-10T22:35:48.263Z,96156.40
2017-09-10T22:38:15.825Z,96149.64
2017-09-10T22:40:43.383Z,96145.02
2017-09-10T22:43:10.958Z,96145.86
2017-09-10T22:45:38.536Z,96147.14
2017-09-10T22:48:06.417Z,96150.20
2017-09-10T22:50:33.989Z,96148.09
2017-09-10T22:53:01.554Z,96142.20
2017-09-10T22:55:29.241Z,96137.54
2017-09-10T22:57:56.800Z,96131.19
2017-09-10T23:00:24.396Z,96129.09
2017-09-10T23:02:52.707Z,96123.63
2017-09-10T23:05:20.264Z,96127.86
2017-09-10T23:07:47.860Z,96119.02
2017-09-10T23:10:15.436Z,96119.06
2017-09-10T23:12:43.266Z,96115.27
2017-09-10T23:15:11.014Z,96120.77
2017-09-10T23:17:38.576Z,96115.30
2017-09-10T23:20:06.154Z,96106.41
2017-09-10T23:22:33.713Z,96106.41
2017-09-10T23:25:01.301Z,96101.38
2017-09-10T23:27:28.880Z,96094.64
2017-09-10T23:29:56.512Z,96097.64
2017-09-10T23:32:24.086Z,96094.73
2017-09-10T23:34:51.658Z,96090.55
2017-09-10T23:37:19.240Z,96092.72
2017-09-10T23:39:47.172Z,96094.87
2017-09-10T23:42:14.788Z,96093.66
2017-09-10T23:44:42.351Z,96093.70
2017-09-10T23:47:09.969Z,96098.78
2017-09-10T23:49:37.652Z,96093.72
2017-09-10T23:52:05.232Z,96089.05
2017-09-10T23:54:33.146Z,96090.78
2017-09-10T23:57:00.776Z,96089.48
2017-09-10T23:59:28.352Z,96082.27
